Time;durP1;ratioP1;P1;durP2;ratioP2;P2;SDS_P1;SDS_P2;PMS_P1;PMS_P2;Temp;Humidity;BMP_temperature;BMP_pressure;BME280_temperature;BME280_humidity;BME280_pressure;Samples;Min_cycle;Max_cycle;Signal;HPM_P1;HPM_P2
2024/04/21 00:01:50;;;;;;;2.03;1.80;;;;;;;;;;5484245;26;19998;-65
2024/04/21 00:04:17;;;;;;;2.40;1.90;;;;;;;;;;5482749;26;20002;-66
2024/04/21 00:06:48;;;;;;;2.70;1.90;;;;;;;;;;5480306;26;20074;-65
2024/04/21 00:09:15;;;;;;;4.93;2.42;;;;;;;;;;5483852;26;20017;-65
2024/04/21 00:11:45;;;;;;;1.70;1.60;;;;;;;;;;5483522;26;20417;-66
2024/04/21 00:14:13;;;;;;;2.22;1.80;;;;;;;;;;5467293;26;20003;-65
2024/04/21 00:16:45;;;;;;;4.50;2.08;;;;;;;;;;5474445;26;19998;-65
2024/04/21 00:19:13;;;;;;;5.03;1.95;;;;;;;;;;5481854;26;20006;-65
2024/04/21 00:21:43;;;;;;;2.83;1.70;;;;;;;;;;5482951;26;20015;-66
2024/04/21 00:24:11;;;;;;;2.10;1.58;;;;;;;;;;5483322;26;20474;-65
2024/04/21 00:26:41;;;;;;;3.58;1.80;;;;;;;;;;5482078;26;19998;-65
2024/04/21 00:29:08;;;;;;;2.35;1.65;;;;;;;;;;5479787;26;20002;-66
2024/04/21 00:31:39;;;;;;;1.98;1.70;;;;;;;;;;5468219;26;20351;-65
2024/04/21 00:34:09;;;;;;;3.35;1.77;;;;;;;;;;5482076;26;20051;-65
2024/04/21 00:36:39;;;;;;;2.10;1.50;;;;;;;;;;5475624;26;20012;-65
2024/04/21 00:39:07;;;;;;;2.05;1.63;;;;;;;;;;5482388;26;19998;-65
2024/04/21 00:41:37;;;;;;;1.50;1.40;;;;;;;;;;5452932;26;20079;-66
2024/04/21 00:44:04;;;;;;;1.40;1.30;;;;;;;;;;5475178;26;20074;-65
2024/04/21 00:46:34;;;;;;;1.67;1.45;;;;;;;;;;5467326;26;20018;-65
2024/04/21 00:49:02;;;;;;;1.92;1.50;;;;;;;;;;5461934;26;20038;-65
2024/04/21 00:51:36;;;;;;;1.67;1.52;;;;;;;;;;5453814;26;20002;-65
2024/04/21 00:54:04;;;;;;;3.50;1.70;;;;;;;;;;5484770;26;20066;-65
2024/04/21 00:56:35;;;;;;;2.60;1.83;;;;;;;;;;5486144;26;20018;-65
2024/04/21 00:59:02;;;;;;;2.40;1.65;;;;;;;;;;5472273;26;20073;-65
2024/04/21 01:01:33;;;;;;;1.90;1.70;;;;;;;;;;5468302;26;20011;-66
2024/04/21 01:04:00;;;;;;;2.78;2.00;;;;;;;;;;5477374;26;20075;-67
2024/04/21 01:06:31;;;;;;;2.40;1.80;;;;;;;;;;5488777;26;20019;-66
2024/04/21 01:09:01;;;;;;;2.22;1.70;;;;;;;;;;5481868;26;19999;-66
2024/04/21 01:11:31;;;;;;;2.08;1.75;;;;;;;;;;5486392;26;20014;-67
2024/04/21 01:13:59;;;;;;;2.17;1.98;;;;;;;;;;5487078;26;19998;-65
2024/04/21 01:16:29;;;;;;;2.58;1.73;;;;;;;;;;5467213;26;20074;-65
2024/04/21 01:18:56;;;;;;;2.88;1.90;;;;;;;;;;5484981;26;19998;-66
2024/04/21 01:21:27;;;;;;;2.22;1.70;;;;;;;;;;5489196;26;20006;-66
2024/04/21 01:23:57;;;;;;;2.20;1.73;;;;;;;;;;5499865;26;19998;-65
2024/04/21 01:26:27;;;;;;;2.78;2.22;;;;;;;;;;5492163;26;20002;-65
2024/04/21 01:28:55;;;;;;;2.38;1.67;;;;;;;;;;5484169;26;20002;-67
2024/04/21 01:31:27;;;;;;;2.78;2.13;;;;;;;;;;5466025;26;20002;-67
2024/04/21 01:33:55;;;;;;;2.20;1.67;;;;;;;;;;5485202;26;20663;-66
2024/04/21 01:36:25;;;;;;;2.85;2.13;;;;;;;;;;5485609;26;20010;-65
2024/04/21 01:38:52;;;;;;;2.63;1.98;;;;;;;;;;5480065;26;20009;-65
2024/04/21 01:41:25;;;;;;;2.67;2.08;;;;;;;;;;5466938;26;20002;-66
2024/04/21 01:43:53;;;;;;;2.75;1.98;;;;;;;;;;5485591;26;19994;-66
2024/04/21 01:46:23;;;;;;;2.40;2.10;;;;;;;;;;5459362;26;20002;-66
2024/04/21 01:48:50;;;;;;;2.05;1.77;;;;;;;;;;5486847;26;20006;-65
2024/04/21 01:51:20;;;;;;;3.95;2.10;;;;;;;;;;5462515;26;20021;-65
2024/04/21 01:53:48;;;;;;;3.17;2.30;;;;;;;;;;5485273;26;20036;-67
2024/04/21 01:56:18;;;;;;;2.95;2.10;;;;;;;;;;5484826;26;20002;-66
2024/04/21 01:58:48;;;;;;;2.88;2.00;;;;;;;;;;5484967;26;19998;-67
2024/04/21 02:01:18;;;;;;;3.15;2.33;;;;;;;;;;5486325;26;19998;-65
2024/04/21 02:03:46;;;;;;;2.58;2.38;;;;;;;;;;5485389;26;19998;-65
2024/04/21 02:06:16;;;;;;;3.15;2.15;;;;;;;;;;5484902;26;20002;-65
2024/04/21 02:08:44;;;;;;;3.10;2.30;;;;;;;;;;5483366;26;19994;-66
2024/04/21 02:11:14;;;;;;;3.20;2.38;;;;;;;;;;5484874;26;20002;-65
2024/04/21 02:13:41;;;;;;;5.30;2.42;;;;;;;;;;5485247;26;20070;-65
2024/04/21 02:16:14;;;;;;;3.40;2.38;;;;;;;;;;5483328;26;20017;-65
2024/04/21 02:18:42;;;;;;;3.45;2.53;;;;;;;;;;5483919;26;19998;-66
2024/04/21 02:21:12;;;;;;;4.65;2.47;;;;;;;;;;5484875;26;20075;-66
2024/04/21 02:23:40;;;;;;;3.58;2.20;;;;;;;;;;5484737;26;20029;-66
2024/04/21 02:26:10;;;;;;;2.40;2.20;;;;;;;;;;5484877;26;20002;-65
2024/04/21 02:28:37;;;;;;;3.17;2.35;;;;;;;;;;5486061;26;20009;-65
2024/04/21 02:31:07;;;;;;;3.70;2.63;;;;;;;;;;5477427;26;20002;-65
2024/04/21 02:33:37;;;;;;;2.75;2.13;;;;;;;;;;5485341;26;19999;-66
2024/04/21 02:36:08;;;;;;;2.83;2.10;;;;;;;;;;5483664;26;20013;-66
2024/04/21 02:38:36;;;;;;;5.03;2.58;;;;;;;;;;5485244;26;19998;-65
2024/04/21 02:41:06;;;;;;;3.08;2.33;;;;;;;;;;5460454;26;20095;-66
2024/04/21 02:43:33;;;;;;;4.65;2.25;;;;;;;;;;5483803;26;20432;-68
2024/04/21 02:46:05;;;;;;;2.92;2.35;;;;;;;;;;5474079;26;20010;-67
2024/04/21 02:48:32;;;;;;;2.58;2.25;;;;;;;;;;5465966;26;20010;-65
2024/04/21 02:51:05;;;;;;;3.40;2.38;;;;;;;;;;5466262;26;20078;-65
2024/04/21 02:53:33;;;;;;;3.28;2.53;;;;;;;;;;5484717;26;20585;-65
2024/04/21 02:56:03;;;;;;;2.67;1.98;;;;;;;;;;5483445;26;20423;-65
2024/04/21 02:58:30;;;;;;;3.17;2.30;;;;;;;;;;5486452;26;19998;-66
2024/04/21 03:01:00;;;;;;;2.65;2.15;;;;;;;;;;5496213;26;20003;-66
2024/04/21 03:03:28;;;;;;;2.58;2.00;;;;;;;;;;5510672;26;20070;-65
2024/04/21 03:05:58;;;;;;;3.72;2.50;;;;;;;;;;5484289;26;20006;-65
2024/04/21 03:08:29;;;;;;;3.65;2.65;;;;;;;;;;5487594;26;20006;-65
2024/04/21 03:10:59;;;;;;;3.22;2.50;;;;;;;;;;5499662;26;20478;-66
2024/04/21 03:13:26;;;;;;;3.72;2.35;;;;;;;;;;5504662;26;19998;-66
2024/04/21 03:15:57;;;;;;;3.40;2.60;;;;;;;;;;5503202;26;20001;-65
2024/04/21 03:18:26;;;;;;;3.45;2.58;;;;;;;;;;5511396;26;20002;-65
2024/04/21 03:20:59;;;;;;;4.72;2.75;;;;;;;;;;5507227;26;20077;-66
2024/04/21 03:23:29;;;;;;;3.40;2.47;;;;;;;;;;5510231;26;20077;-66
2024/04/21 03:25:59;;;;;;;3.58;2.70;;;;;;;;;;5492701;26;19998;-65
2024/04/21 03:28:27;;;;;;;2.38;2.17;;;;;;;;;;5499544;26;20455;-66
2024/04/21 03:30:57;;;;;;;3.25;2.45;;;;;;;;;;5490081;26;20002;-66
2024/04/21 03:33:25;;;;;;;2.75;2.15;;;;;;;;;;5465985;26;20006;-67
2024/04/21 03:36:07;;;;;;;3.65;2.63;;;;;;;;;;5495729;26;20017;-66
2024/04/21 03:38:41;;;;;;;3.50;2.35;;;;;;;;;;5492369;26;20002;-65
2024/04/21 03:41:11;;;;;;;3.05;2.05;;;;;;;;;;5496280;26;19997;-65
2024/04/21 03:43:41;;;;;;;2.75;2.25;;;;;;;;;;5483697;26;20039;-65
2024/04/21 03:46:08;;;;;;;3.10;2.30;;;;;;;;;;5482378;26;20005;-66
2024/04/21 03:48:39;;;;;;;2.47;2.10;;;;;;;;;;5483748;26;20006;-65
2024/04/21 03:51:06;;;;;;;2.90;2.25;;;;;;;;;;5484430;26;19998;-65
2024/04/21 03:53:39;;;;;;;2.20;2.00;;;;;;;;;;5484695;26;20352;-65
2024/04/21 03:56:06;;;;;;;3.00;2.33;;;;;;;;;;5481938;26;20519;-65
2024/04/21 03:58:37;;;;;;;2.85;2.33;;;;;;;;;;5479651;26;20492;-65
2024/04/21 04:01:04;;;;;;;3.10;2.40;;;;;;;;;;5463764;26;20012;-65
2024/04/21 04:03:34;;;;;;;3.03;2.20;;;;;;;;;;5484129;26;20078;-65
2024/04/21 04:06:03;;;;;;;2.97;2.13;;;;;;;;;;5483684;26;20012;-66
2024/04/21 04:08:33;;;;;;;2.70;2.28;;;;;;;;;;5471854;26;20450;-66
2024/04/21 04:11:03;;;;;;;2.42;2.00;;;;;;;;;;5459082;26;19998;-66
2024/04/21 04:13:34;;;;;;;3.65;2.33;;;;;;;;;;5483057;26;20075;-65
2024/04/21 04:16:01;;;;;;;3.55;2.45;;;;;;;;;;5483526;26;20355;-66
2024/04/21 04:18:31;;;;;;;2.88;2.10;;;;;;;;;;5472220;26;20014;-68
2024/04/21 04:20:59;;;;;;;2.88;2.17;;;;;;;;;;5470204;26;19999;-66
2024/04/21 04:23:29;;;;;;;2.63;2.35;;;;;;;;;;5471181;26;20002;-65
2024/04/21 04:25:56;;;;;;;2.85;2.30;;;;;;;;;;5482660;26;19998;-65
2024/04/21 04:28:30;;;;;;;2.13;1.80;;;;;;;;;;5480950;26;20014;-65
2024/04/21 04:30:57;;;;;;;2.17;1.90;;;;;;;;;;5483457;26;20013;-66
2024/04/21 04:33:27;;;;;;;3.33;2.13;;;;;;;;;;5481223;26;20017;-66
2024/04/21 04:35:55;;;;;;;2.97;2.30;;;;;;;;;;5483220;26;20436;-65
2024/04/21 04:38:25;;;;;;;2.78;2.13;;;;;;;;;;5484450;26;20523;-65
2024/04/21 04:40:52;;;;;;;2.63;2.13;;;;;;;;;;5485416;26;19998;-65
2024/04/21 04:43:23;;;;;;;2.22;1.73;;;;;;;;;;5487594;26;20017;-65
2024/04/21 04:45:53;;;;;;;2.70;2.00;;;;;;;;;;5484556;26;20006;-66
2024/04/21 04:48:23;;;;;;;2.85;2.20;;;;;;;;;;5486509;26;20002;-65
2024/04/21 04:50:50;;;;;;;3.35;1.88;;;;;;;;;;5484984;26;20009;-65
2024/04/21 04:53:21;;;;;;;3.33;1.90;;;;;;;;;;5488315;26;20017;-69
2024/04/21 04:55:48;;;;;;;3.53;2.40;;;;;;;;;;5505308;26;20009;-65
2024/04/21 04:58:19;;;;;;;2.15;1.70;;;;;;;;;;5483965;26;20134;-66
2024/04/21 05:00:46;;;;;;;2.72;1.88;;;;;;;;;;5497430;26;20462;-66
2024/04/21 05:03:19;;;;;;;2.55;2.10;;;;;;;;;;5486418;26;20030;-65
2024/04/21 05:05:47;;;;;;;2.50;1.90;;;;;;;;;;5485343;26;20013;-66
2024/04/21 05:08:17;;;;;;;2.47;2.22;;;;;;;;;;5476636;26;20018;-66
2024/04/21 05:10:44;;;;;;;2.55;2.15;;;;;;;;;;5491918;26;20014;-68
2024/04/21 05:13:14;;;;;;;2.38;1.92;;;;;;;;;;5510243;26;20002;-65
2024/04/21 05:15:43;;;;;;;3.92;2.03;;;;;;;;;;5510352;26;20029;-65
2024/04/21 05:18:13;;;;;;;4.15;2.25;;;;;;;;;;5500081;26;20368;-63
2024/04/21 05:20:43;;;;;;;2.78;2.22;;;;;;;;;;5502056;26;20017;-65
2024/04/21 05:23:14;;;;;;;4.05;2.05;;;;;;;;;;5510184;26;20013;-65
2024/04/21 05:25:41;;;;;;;2.28;2.00;;;;;;;;;;5497906;26;20463;-67
2024/04/21 05:28:11;;;;;;;2.33;1.98;;;;;;;;;;5489464;26;20081;-65
2024/04/21 05:30:39;;;;;;;2.70;1.90;;;;;;;;;;5486290;26;20049;-65
2024/04/21 05:33:09;;;;;;;2.15;1.88;;;;;;;;;;5486065;26;20017;-66
2024/04/21 05:35:36;;;;;;;3.00;2.25;;;;;;;;;;5504807;26;19997;-66
2024/04/21 05:38:09;;;;;;;2.13;1.92;;;;;;;;;;5484685;26;20002;-65
2024/04/21 05:40:37;;;;;;;2.35;1.92;;;;;;;;;;5505448;26;20002;-67
2024/04/21 05:43:07;;;;;;;2.30;1.85;;;;;;;;;;5499805;26;20443;-65
2024/04/21 05:45:34;;;;;;;3.13;2.58;;;;;;;;;;5481758;26;20016;-66
2024/04/21 05:48:04;;;;;;;2.30;1.95;;;;;;;;;;5502187;26;20432;-66
2024/04/21 05:50:32;;;;;;;2.60;2.08;;;;;;;;;;5495035;26;19998;-66
2024/04/21 05:53:02;;;;;;;2.60;1.98;;;;;;;;;;5500767;26;20079;-65
2024/04/21 05:55:34;;;;;;;4.53;1.95;;;;;;;;;;5482442;26;20099;-64
2024/04/21 05:58:04;;;;;;;2.95;2.10;;;;;;;;;;5474557;26;20452;-65
2024/04/21 06:00:31;;;;;;;2.17;1.75;;;;;;;;;;5501558;26;20050;-64
2024/04/21 06:03:02;;;;;;;2.30;2.00;;;;;;;;;;5492849;26;20474;-66
2024/04/21 06:05:29;;;;;;;3.38;2.17;;;;;;;;;;5500907;26;20002;-64
2024/04/21 06:07:59;;;;;;;2.58;2.08;;;;;;;;;;5484072;26;20482;-64
2024/04/21 06:10:27;;;;;;;3.25;2.13;;;;;;;;;;5485315;26;20374;-65
2024/04/21 06:13:00;;;;;;;2.72;2.00;;;;;;;;;;5484804;26;20003;-65
2024/04/21 06:15:27;;;;;;;2.13;1.92;;;;;;;;;;5484334;26;20010;-65
2024/04/21 06:17:57;;;;;;;4.35;2.25;;;;;;;;;;5483324;26;20081;-65
2024/04/21 06:20:25;;;;;;;2.08;1.80;;;;;;;;;;5484806;26;20081;-64
2024/04/21 06:22:56;;;;;;;2.83;2.10;;;;;;;;;;5485456;26;20083;-65
2024/04/21 06:25:23;;;;;;;2.75;2.00;;;;;;;;;;5483612;26;19998;-65
2024/04/21 06:27:54;;;;;;;2.28;1.80;;;;;;;;;;5482687;26;20013;-66
2024/04/21 06:30:24;;;;;;;3.22;2.30;;;;;;;;;;5484907;26;20002;-65
2024/04/21 06:32:54;;;;;;;2.10;1.90;;;;;;;;;;5485430;26;20002;-65
2024/04/21 06:35:22;;;;;;;2.60;1.85;;;;;;;;;;5485557;26;20452;-66
2024/04/21 06:37:52;;;;;;;2.22;1.92;;;;;;;;;;5482892;26;20002;-68
2024/04/21 06:40:19;;;;;;;1.70;1.60;;;;;;;;;;5485262;26;19998;-65
2024/04/21 06:42:49;;;;;;;2.70;2.03;;;;;;;;;;5483184;26;20013;-67
2024/04/21 06:45:17;;;;;;;2.35;1.80;;;;;;;;;;5468655;26;20082;-65
2024/04/21 06:47:50;;;;;;;3.03;2.03;;;;;;;;;;5484262;26;20459;-66
2024/04/21 06:50:17;;;;;;;2.13;1.63;;;;;;;;;;5484750;26;20431;-65
2024/04/21 06:52:48;;;;;;;2.00;1.60;;;;;;;;;;5483868;26;20491;-66
2024/04/21 06:55:15;;;;;;;2.53;1.98;;;;;;;;;;5484914;26;20052;-66
2024/04/21 06:57:46;;;;;;;2.85;2.15;;;;;;;;;;5483595;26;20562;-65
2024/04/21 07:00:14;;;;;;;2.95;1.80;;;;;;;;;;5472679;26;20435;-66
2024/04/21 07:02:44;;;;;;;2.40;1.92;;;;;;;;;;5484252;26;19998;-65
2024/04/21 07:05:15;;;;;;;1.83;1.70;;;;;;;;;;5484263;26;19998;-65
2024/04/21 07:07:45;;;;;;;1.88;1.50;;;;;;;;;;5483012;26;20010;-65
2024/04/21 07:10:12;;;;;;;2.15;1.80;;;;;;;;;;5481937;26;19998;-65
2024/04/21 07:12:43;;;;;;;2.75;1.90;;;;;;;;;;5484809;26;20082;-66
2024/04/21 07:15:10;;;;;;;2.30;1.90;;;;;;;;;;5484700;26;20006;-65
2024/04/21 07:17:40;;;;;;;2.67;1.75;;;;;;;;;;5486239;26;20002;-66
2024/04/21 07:20:08;;;;;;;3.28;1.90;;;;;;;;;;5487626;26;20002;-65
2024/04/21 07:22:41;;;;;;;2.45;1.83;;;;;;;;;;5485648;26;20013;-65
2024/04/21 07:25:09;;;;;;;2.00;1.48;;;;;;;;;;5481655;26;20020;-65
2024/04/21 07:27:51;;;;;;;1.67;1.48;;;;;;;;;;5484535;26;20002;-65
2024/04/21 07:30:21;;;;;;;3.10;1.80;;;;;;;;;;5485878;26;19998;-65
2024/04/21 07:32:49;;;;;;;2.08;1.60;;;;;;;;;;5485977;26;20006;-66
2024/04/21 07:35:20;;;;;;;1.88;1.35;;;;;;;;;;5486251;26;20010;-67
2024/04/21 07:37:50;;;;;;;1.58;1.30;;;;;;;;;;5481530;26;20010;-66
2024/04/21 07:40:20;;;;;;;2.47;1.48;;;;;;;;;;5483826;26;20555;-67
2024/04/21 07:42:47;;;;;;;1.40;1.30;;;;;;;;;;5484311;26;20014;-65
2024/04/21 07:45:18;;;;;;;1.42;1.33;;;;;;;;;;5481906;26;20013;-64
2024/04/21 07:47:45;;;;;;;1.77;1.58;;;;;;;;;;5483740;26;20074;-65
2024/04/21 07:50:16;;;;;;;1.48;1.20;;;;;;;;;;5481704;26;20009;-66
2024/04/21 07:52:43;;;;;;;1.20;1.10;;;;;;;;;;5481937;26;20057;-66
2024/04/21 07:55:16;;;;;;;1.80;1.40;;;;;;;;;;5483473;26;19998;-65
2024/04/21 07:57:43;;;;;;;2.85;1.25;;;;;;;;;;5482921;26;20462;-65
2024/04/21 08:00:14;;;;;;;3.08;1.30;;;;;;;;;;5485212;26;20006;-65
2024/04/21 08:02:42;;;;;;;1.00;1.00;;;;;;;;;;5482713;26;20026;-66
2024/04/21 08:05:12;;;;;;;1.15;1.05;;;;;;;;;;5483456;26;20002;-66
2024/04/21 08:07:41;;;;;;;1.10;1.00;;;;;;;;;;5476398;26;20456;-67
2024/04/21 08:10:11;;;;;;;0.75;0.70;;;;;;;;;;5461922;26;20031;-64
2024/04/21 08:12:41;;;;;;;1.25;0.77;;;;;;;;;;5483672;26;20456;-65
2024/04/21 08:15:11;;;;;;;0.75;0.75;;;;;;;;;;5482278;26;20516;-64
2024/04/21 08:17:39;;;;;;;0.68;0.68;;;;;;;;;;5485291;26;20052;-65
2024/04/21 08:20:10;;;;;;;1.83;0.70;;;;;;;;;;5486865;26;19998;-65
2024/04/21 08:22:37;;;;;;;0.85;0.80;;;;;;;;;;5486970;26;20006;-65
2024/04/21 08:25:07;;;;;;;1.45;1.10;;;;;;;;;;5487506;26;20113;-65
2024/04/21 08:27:36;;;;;;;1.23;0.90;;;;;;;;;;5482478;26;20006;-65
2024/04/21 08:30:09;;;;;;;1.30;0.90;;;;;;;;;;5483908;26;20006;-66
2024/04/21 08:32:37;;;;;;;3.92;0.95;;;;;;;;;;5482921;26;20074;-65
2024/04/21 08:35:07;;;;;;;0.80;0.80;;;;;;;;;;5491291;26;19998;-66
2024/04/21 08:37:35;;;;;;;1.00;0.90;;;;;;;;;;5478972;26;20014;-65
2024/04/21 08:40:05;;;;;;;0.90;0.90;;;;;;;;;;5489594;26;20354;-66
2024/04/21 08:42:34;;;;;;;0.98;0.82;;;;;;;;;;5481714;26;20713;-66
2024/04/21 08:45:04;;;;;;;0.90;0.80;;;;;;;;;;5489609;26;19998;-65
2024/04/21 08:47:35;;;;;;;1.15;1.10;;;;;;;;;;5485366;26;20520;-65
2024/04/21 08:50:05;;;;;;;3.05;0.90;;;;;;;;;;5487114;26;20032;-66
2024/04/21 08:52:33;;;;;;;0.90;0.90;;;;;;;;;;5467456;26;20006;-65
2024/04/21 08:55:03;;;;;;;1.23;1.00;;;;;;;;;;5477637;26;20394;-65
2024/04/21 08:57:33;;;;;;;1.63;1.10;;;;;;;;;;5485976;26;20002;-64
2024/04/21 09:00:04;;;;;;;0.88;0.88;;;;;;;;;;5482928;26;20017;-65
2024/04/21 09:02:35;;;;;;;1.48;0.90;;;;;;;;;;5486183;26;20016;-65
2024/04/21 09:05:06;;;;;;;1.08;0.98;;;;;;;;;;5485814;26;20518;-65
2024/04/21 09:07:36;;;;;;;1.30;0.95;;;;;;;;;;5483846;26;20002;-65
2024/04/21 09:10:07;;;;;;;1.27;1.10;;;;;;;;;;5485858;26;20067;-64
2024/04/21 09:12:35;;;;;;;2.92;1.23;;;;;;;;;;5480856;26;20002;-65
2024/04/21 09:15:06;;;;;;;2.25;1.23;;;;;;;;;;5480157;26;20036;-66
2024/04/21 09:17:36;;;;;;;1.85;1.30;;;;;;;;;;5484854;26;20006;-65
2024/04/21 09:20:07;;;;;;;1.83;1.08;;;;;;;;;;5486243;26;20332;-63
2024/04/21 09:22:34;;;;;;;1.33;1.23;;;;;;;;;;5485947;26;20002;-64
2024/04/21 09:25:04;;;;;;;0.80;0.80;;;;;;;;;;5483491;26;19998;-65
2024/04/21 09:27:33;;;;;;;1.15;0.80;;;;;;;;;;5485232;26;20337;-64
2024/04/21 09:30:03;;;;;;;2.15;1.13;;;;;;;;;;5485298;26;20002;-67
2024/04/21 09:32:33;;;;;;;0.80;0.80;;;;;;;;;;5486245;26;20002;-67
2024/04/21 09:35:06;;;;;;;1.33;0.90;;;;;;;;;;5486073;26;20018;-67
2024/04/21 09:37:33;;;;;;;1.42;0.77;;;;;;;;;;5483815;26;20014;-67
2024/04/21 09:40:04;;;;;;;0.60;0.60;;;;;;;;;;5483857;26;20449;-68
2024/04/21 09:42:33;;;;;;;1.02;0.70;;;;;;;;;;5485994;26;20006;-67
2024/04/21 09:45:04;;;;;;;0.55;0.55;;;;;;;;;;5484999;26;20084;-66
2024/04/21 09:47:32;;;;;;;0.60;0.60;;;;;;;;;;5485768;26;20006;-67
2024/04/21 09:50:03;;;;;;;0.70;0.70;;;;;;;;;;5486768;26;20002;-68
2024/04/21 09:52:36;;;;;;;0.93;0.73;;;;;;;;;;5485534;26;20021;-67
2024/04/21 09:55:07;;;;;;;0.50;0.50;;;;;;;;;;5471673;26;20297;-64
2024/04/21 09:57:35;;;;;;;0.55;0.55;;;;;;;;;;5485256;26;20016;-64
2024/04/21 10:00:06;;;;;;;1.60;0.55;;;;;;;;;;5486545;26;20013;-64
2024/04/21 10:02:36;;;;;;;0.65;0.65;;;;;;;;;;5485512;26;20006;-64
2024/04/21 10:05:09;;;;;;;0.57;0.57;;;;;;;;;;5485617;26;20123;-64
2024/04/21 10:07:39;;;;;;;1.83;0.70;;;;;;;;;;5484772;26;20014;-64
2024/04/21 10:10:11;;;;;;;3.55;0.80;;;;;;;;;;5482867;26;20010;-65
2024/04/21 10:12:39;;;;;;;0.60;0.60;;;;;;;;;;5473875;26;20006;-65
2024/04/21 10:15:10;;;;;;;0.50;0.50;;;;;;;;;;5484480;26;20433;-64
2024/04/21 10:17:37;;;;;;;2.45;0.70;;;;;;;;;;5484161;26;20074;-65
2024/04/21 10:20:09;;;;;;;0.63;0.60;;;;;;;;;;5485791;26;20006;-64
2024/04/21 10:22:39;;;;;;;1.52;0.70;;;;;;;;;;5484848;26;20460;-64
2024/04/21 10:25:11;;;;;;;0.60;0.60;;;;;;;;;;5485821;26;20009;-66
2024/04/21 10:27:38;;;;;;;0.70;0.70;;;;;;;;;;5483664;26;20083;-66
2024/04/21 10:30:16;;;;;;;0.75;0.75;;;;;;;;;;5482675;26;20006;-64
2024/04/21 10:32:44;;;;;;;0.60;0.60;;;;;;;;;;5485076;26;20014;-64
2024/04/21 10:35:23;;;;;;;0.95;0.73;;;;;;;;;;5481963;26;20369;-64
2024/04/21 10:37:56;;;;;;;1.92;0.85;;;;;;;;;;5492055;26;20173;-65
2024/04/21 10:40:26;;;;;;;2.05;0.85;;;;;;;;;;5487845;26;19998;-65
2024/04/21 10:42:56;;;;;;;0.60;0.60;;;;;;;;;;5478635;26;20006;-64
2024/04/21 10:45:26;;;;;;;0.70;0.70;;;;;;;;;;5483119;26;20026;-65
2024/04/21 10:47:54;;;;;;;0.57;0.55;;;;;;;;;;5476388;26;20439;-65
2024/04/21 10:50:24;;;;;;;1.23;0.70;;;;;;;;;;5485047;26;20014;-65
2024/04/21 10:52:53;;;;;;;0.60;0.60;;;;;;;;;;5477691;26;20010;-64
2024/04/21 10:55:26;;;;;;;0.47;0.47;;;;;;;;;;5484805;26;20052;-66
2024/04/21 10:57:53;;;;;;;0.50;0.50;;;;;;;;;;5484451;26;19998;-66
2024/04/21 11:00:23;;;;;;;0.70;0.70;;;;;;;;;;5485616;26;20436;-66
2024/04/21 11:02:51;;;;;;;1.00;0.63;;;;;;;;;;5484815;26;19994;-67
2024/04/21 11:05:21;;;;;;;1.23;0.75;;;;;;;;;;5484771;26;20526;-66
2024/04/21 11:07:49;;;;;;;2.47;0.52;;;;;;;;;;5484008;26;19998;-66
2024/04/21 11:10:26;;;;;;;0.75;0.68;;;;;;;;;;5485456;26;20006;-66
2024/04/21 11:12:53;;;;;;;1.15;0.60;;;;;;;;;;5486440;26;20017;-67
2024/04/21 11:15:24;;;;;;;0.68;0.63;;;;;;;;;;5483946;26;20002;-67
2024/04/21 11:17:58;;;;;;;0.60;0.60;;;;;;;;;;5484971;26;20447;-67
2024/04/21 11:20:28;;;;;;;0.70;0.70;;;;;;;;;;5484741;26;20016;-66
2024/04/21 11:22:56;;;;;;;0.50;0.50;;;;;;;;;;5483002;26;19998;-66
2024/04/21 11:25:29;;;;;;;0.65;0.60;;;;;;;;;;5458155;26;20027;-67
2024/04/21 11:27:56;;;;;;;0.75;0.60;;;;;;;;;;5476360;26;20017;-66
2024/04/21 11:30:27;;;;;;;1.00;0.73;;;;;;;;;;5485020;26;20021;-66
2024/04/21 11:32:55;;;;;;;0.80;0.80;;;;;;;;;;5485022;26;20074;-67
2024/04/21 11:35:25;;;;;;;0.75;0.70;;;;;;;;;;5485360;26;20053;-66
2024/04/21 11:37:53;;;;;;;0.63;0.55;;;;;;;;;;5483008;26;20195;-66
2024/04/21 11:40:23;;;;;;;0.70;0.70;;;;;;;;;;5484400;26;19999;-67
2024/04/21 11:42:56;;;;;;;0.80;0.80;;;;;;;;;;5485266;26;20343;-66
2024/04/21 11:45:27;;;;;;;0.60;0.60;;;;;;;;;;5484668;26;20013;-66
2024/04/21 11:47:55;;;;;;;0.70;0.70;;;;;;;;;;5482434;26;20090;-67
2024/04/21 11:50:26;;;;;;;0.50;0.50;;;;;;;;;;5482389;26;20017;-67
2024/04/21 11:52:54;;;;;;;2.05;0.60;;;;;;;;;;5481482;26;20022;-68
2024/04/21 11:55:24;;;;;;;0.88;0.70;;;;;;;;;;5483945;26;20018;-66
2024/04/21 11:57:54;;;;;;;0.75;0.75;;;;;;;;;;5483283;26;20006;-69
2024/04/21 12:00:25;;;;;;;1.02;0.60;;;;;;;;;;5475266;26;20010;-67
2024/04/21 12:02:52;;;;;;;0.70;0.70;;;;;;;;;;5483104;26;19998;-67
2024/04/21 12:05:23;;;;;;;0.73;0.73;;;;;;;;;;5484130;26;20030;-66
2024/04/21 12:07:50;;;;;;;0.80;0.70;;;;;;;;;;5482506;26;20443;-66
2024/04/21 12:10:20;;;;;;;0.80;0.68;;;;;;;;;;5483714;26;20018;-66
2024/04/21 12:12:48;;;;;;;1.77;0.70;;;;;;;;;;5493527;26;20348;-67
2024/04/21 12:15:21;;;;;;;0.77;0.70;;;;;;;;;;5489159;26;20018;-68
2024/04/21 12:17:48;;;;;;;0.60;0.60;;;;;;;;;;5492407;26;19998;-69
2024/04/21 12:20:19;;;;;;;0.60;0.60;;;;;;;;;;5481076;26;20511;-67
2024/04/21 12:22:49;;;;;;;0.70;0.70;;;;;;;;;;5457329;26;20003;-66
2024/04/21 12:25:19;;;;;;;0.80;0.70;;;;;;;;;;5447347;26;20010;-67
2024/04/21 12:27:47;;;;;;;0.75;0.70;;;;;;;;;;5463774;26;20386;-66
2024/04/21 12:30:18;;;;;;;0.70;0.70;;;;;;;;;;5480508;26;20010;-68
2024/04/21 12:32:48;;;;;;;2.03;0.80;;;;;;;;;;5482128;26;20006;-66
2024/04/21 12:35:19;;;;;;;1.35;1.00;;;;;;;;;;5481978;26;19998;-67
2024/04/21 12:37:46;;;;;;;0.77;0.75;;;;;;;;;;5481036;26;20002;-68
2024/04/21 12:40:16;;;;;;;0.77;0.77;;;;;;;;;;5481713;26;19999;-69
2024/04/21 12:42:44;;;;;;;1.08;0.93;;;;;;;;;;5481376;26;20014;-66
2024/04/21 12:45:17;;;;;;;1.10;1.00;;;;;;;;;;5480811;26;20002;-67
2024/04/21 12:47:44;;;;;;;2.45;0.95;;;;;;;;;;5481045;26;20002;-67
2024/04/21 12:50:17;;;;;;;1.33;0.90;;;;;;;;;;5480595;26;20074;-67
2024/04/21 12:52:46;;;;;;;0.82;0.70;;;;;;;;;;5481281;26;20046;-67
2024/04/21 12:55:16;;;;;;;1.35;1.08;;;;;;;;;;5480419;26;19998;-67
2024/04/21 12:57:44;;;;;;;0.70;0.70;;;;;;;;;;5481076;26;20371;-67
2024/04/21 13:00:14;;;;;;;0.80;0.80;;;;;;;;;;5479871;26;20324;-67
2024/04/21 13:02:42;;;;;;;0.75;0.70;;;;;;;;;;5483400;26;20017;-67
2024/04/21 13:05:13;;;;;;;0.88;0.70;;;;;;;;;;5483707;26;20022;-67
2024/04/21 13:07:44;;;;;;;1.20;0.98;;;;;;;;;;5476868;26;20040;-67
2024/04/21 13:10:14;;;;;;;0.60;0.60;;;;;;;;;;5482270;26;19998;-68
2024/04/21 13:12:41;;;;;;;0.60;0.60;;;;;;;;;;5484283;26;20014;-68
2024/04/21 13:15:12;;;;;;;0.68;0.68;;;;;;;;;;5480711;26;19998;-68
2024/04/21 13:17:44;;;;;;;0.60;0.60;;;;;;;;;;5483666;26;20010;-68
2024/04/21 13:20:16;;;;;;;0.93;0.80;;;;;;;;;;5476977;26;20003;-67
2024/04/21 13:22:46;;;;;;;0.70;0.70;;;;;;;;;;5475112;26;20014;-69
2024/04/21 13:25:16;;;;;;;0.80;0.70;;;;;;;;;;5480714;26;20456;-68
2024/04/21 13:27:44;;;;;;;0.60;0.60;;;;;;;;;;5481180;26;20454;-69
2024/04/21 13:30:14;;;;;;;0.60;0.60;;;;;;;;;;5483175;26;20009;-68
2024/04/21 13:32:42;;;;;;;0.57;0.57;;;;;;;;;;5484588;26;20396;-68
2024/04/21 13:35:12;;;;;;;0.60;0.60;;;;;;;;;;5483621;26;20002;-67
2024/04/21 13:37:42;;;;;;;0.47;0.47;;;;;;;;;;5483690;26;20054;-68
2024/04/21 13:40:15;;;;;;;0.63;0.50;;;;;;;;;;5483415;26;20490;-68
2024/04/21 13:42:42;;;;;;;0.50;0.50;;;;;;;;;;5477003;26;20014;-68
2024/04/21 13:45:12;;;;;;;0.60;0.60;;;;;;;;;;5479502;26;20401;-68
2024/04/21 13:47:40;;;;;;;1.40;0.57;;;;;;;;;;5482139;26;20002;-68
2024/04/21 13:50:10;;;;;;;0.60;0.60;;;;;;;;;;5482666;26;20455;-67
2024/04/21 13:52:38;;;;;;;0.55;0.55;;;;;;;;;;5482094;26;19998;-68
2024/04/21 13:55:08;;;;;;;1.80;0.98;;;;;;;;;;5482862;26;20002;-68
2024/04/21 13:57:39;;;;;;;1.67;0.70;;;;;;;;;;5482181;26;20081;-68
2024/04/21 14:00:09;;;;;;;0.80;0.80;;;;;;;;;;5484197;26;20014;-68
2024/04/21 14:02:37;;;;;;;0.93;0.93;;;;;;;;;;5483419;26;20074;-69
2024/04/21 14:05:07;;;;;;;0.70;0.70;;;;;;;;;;5482059;26;20037;-68
2024/04/21 14:07:35;;;;;;;0.80;0.70;;;;;;;;;;5481450;26;20328;-68
2024/04/21 14:10:05;;;;;;;1.08;0.90;;;;;;;;;;5486358;26;20025;-67
2024/04/21 14:12:33;;;;;;;0.85;0.85;;;;;;;;;;5467109;26;20002;-67
2024/04/21 14:15:06;;;;;;;1.05;0.80;;;;;;;;;;5480118;26;20002;-67
2024/04/21 14:17:35;;;;;;;1.20;1.02;;;;;;;;;;5463754;26;19998;-68
2024/04/21 14:20:05;;;;;;;2.25;1.00;;;;;;;;;;5479330;26;20558;-68
2024/04/21 14:22:33;;;;;;;1.27;0.90;;;;;;;;;;5479483;26;20010;-68
2024/04/21 14:25:03;;;;;;;0.93;0.70;;;;;;;;;;5483879;26;20003;-67
2024/04/21 14:27:31;;;;;;;0.98;0.80;;;;;;;;;;5449210;26;20017;-68
2024/04/21 14:30:01;;;;;;;0.60;0.60;;;;;;;;;;5439873;26;20081;-67
2024/04/21 14:32:35;;;;;;;0.80;0.80;;;;;;;;;;5434546;26;19998;-67
2024/04/21 14:35:07;;;;;;;0.93;0.70;;;;;;;;;;5425033;26;20448;-67
2024/04/21 14:37:35;;;;;;;0.88;0.70;;;;;;;;;;5446671;26;19999;-68
2024/04/21 14:40:05;;;;;;;0.80;0.77;;;;;;;;;;5447157;26;20007;-68
2024/04/21 14:42:33;;;;;;;1.48;0.85;;;;;;;;;;5446674;26;20503;-67
2024/04/21 14:45:03;;;;;;;0.70;0.70;;;;;;;;;;5447182;26;20374;-68
2024/04/21 14:47:36;;;;;;;0.80;0.80;;;;;;;;;;5445066;26;20017;-68
2024/04/21 14:50:07;;;;;;;0.70;0.70;;;;;;;;;;5447452;26;20524;-67
2024/04/21 14:52:37;;;;;;;0.70;0.70;;;;;;;;;;5470419;26;19998;-67
2024/04/21 14:55:07;;;;;;;0.95;0.80;;;;;;;;;;5446904;26;20015;-67
2024/04/21 14:57:35;;;;;;;0.60;0.60;;;;;;;;;;5446615;26;20003;-67